createdAt,value
2022-08-03T00:01:46.080Z,78.63
2022-08-03T00:04:14.096Z,79.17
2022-08-03T00:06:42.090Z,78.55
2022-08-03T00:09:11.815Z,78.98
2022-08-03T00:11:39.665Z,78.89
2022-08-03T00:14:08.725Z,78.95
2022-08-03T00:16:36.823Z,78.29
2022-08-03T00:19:05.132Z,78.54
2022-08-03T00:21:33.210Z,77.92
2022-08-03T00:24:01.626Z,77.77
2022-08-03T00:26:31.771Z,77.53
2022-08-03T00:28:59.899Z,76.93
2022-08-03T00:31:45.040Z,76.66
2022-08-03T00:34:15.869Z,76.65
2022-08-03T00:36:43.889Z,76.51
2022-08-03T00:39:11.936Z,77.15
2022-08-03T00:41:41.439Z,77.22
2022-08-03T00:44:09.464Z,77.19
2022-08-03T00:46:37.471Z,77.47
2022-08-03T00:49:05.620Z,77.01
2022-08-03T00:51:35.297Z,78.38
2022-08-03T00:54:03.337Z,78.34
2022-08-03T00:56:31.549Z,78.57
2022-08-03T00:59:01.247Z,79.28
2022-08-03T01:01:32.371Z,78.55
2022-08-03T01:04:01.202Z,78.41
2022-08-03T01:06:36.406Z,78.54
2022-08-03T01:09:10.606Z,78.09
2022-08-03T01:12:01.003Z,77.90
2022-08-03T01:14:35.632Z,78.01
2022-08-03T01:17:12.154Z,77.71
2022-08-03T01:19:50.659Z,77.92
2022-08-03T01:22:50.976Z,78.12
2022-08-03T01:25:28.273Z,77.98
2022-08-03T01:28:04.137Z,77.57
2022-08-03T01:30:36.189Z,77.31
2022-08-03T01:33:07.514Z,77.37
2022-08-03T01:35:41.374Z,77.37
2022-08-03T01:38:13.822Z,77.11
2022-08-03T01:40:44.554Z,77.20
2022-08-03T01:44:27.726Z,77.02
2022-08-03T01:46:09.818Z,77.03
2022-08-03T01:48:40.068Z,77.31
2022-08-03T01:51:11.640Z,77.29
2022-08-03T01:53:43.464Z,77.16
2022-08-03T01:56:12.446Z,77.07
2022-08-03T01:58:42.671Z,76.99
2022-08-03T02:01:14.650Z,77.22
2022-08-03T02:04:00.540Z,77.37
2022-08-03T02:06:59.691Z,77.32
2022-08-03T02:09:22.018Z,77.33
2022-08-03T02:11:52.153Z,77.41
2022-08-03T02:14:21.219Z,77.77
2022-08-03T02:16:52.796Z,77.94
2022-08-03T02:19:20.964Z,77.63
2022-08-03T02:21:56.602Z,77.54
2022-08-03T02:24:29.411Z,77.15
2022-08-03T02:26:58.542Z,77.18
2022-08-03T02:29:40.051Z,76.89
2022-08-03T02:32:15.403Z,77.09
2022-08-03T02:34:47.346Z,77.06
2022-08-03T02:37:19.265Z,77.03
2022-08-03T02:39:48.928Z,77.05
2022-08-03T02:42:18.335Z,77.16
2022-08-03T02:44:51.361Z,76.74
2022-08-03T02:47:22.065Z,77.27
2022-08-03T02:49:52.704Z,77.49
2022-08-03T02:52:22.165Z,78.07
2022-08-03T02:54:52.332Z,77.63
2022-08-03T02:57:22.090Z,77.21
2022-08-03T02:59:50.391Z,76.96
2022-08-03T03:02:21.316Z,76.84
2022-08-03T03:05:53.197Z,77.00
2022-08-03T03:07:51.791Z,77.44
2022-08-03T03:10:21.271Z,77.16
2022-08-03T03:12:51.331Z,76.98
2022-08-03T03:15:19.479Z,76.82
2022-08-03T03:17:50.853Z,77.16
2022-08-03T03:20:26.777Z,77.20
2022-08-03T03:23:01.000Z,77.07
2022-08-03T03:25:31.823Z,77.11
2022-08-03T03:28:01.189Z,77.14
2022-08-03T03:30:31.046Z,77.38
2022-08-03T03:33:00.718Z,77.31
2022-08-03T03:35:28.982Z,77.69
2022-08-03T03:37:57.812Z,78.37
2022-08-03T03:40:26.062Z,77.98
2022-08-03T03:42:54.226Z,77.94
2022-08-03T03:45:23.198Z,78.07
2022-08-03T03:47:51.510Z,77.91
2022-08-03T03:50:21.677Z,78.19
2022-08-03T03:52:49.790Z,77.95
2022-08-03T03:55:18.986Z,77.98
2022-08-03T03:57:47.082Z,77.82
2022-08-03T04:00:17.142Z,77.68
2022-08-03T04:02:45.690Z,78.10
2022-08-03T04:05:31.288Z,78.41
2022-08-03T04:08:20.182Z,78.99
2022-08-03T04:11:03.235Z,78.84
2022-08-03T04:13:34.601Z,77.52
2022-08-03T04:16:04.323Z,77.31
2022-08-03T04:18:33.857Z,77.27
2022-08-03T04:21:05.404Z,77.25
2022-08-03T04:23:38.567Z,76.97
2022-08-03T04:26:09.677Z,76.93
2022-08-03T04:28:39.690Z,76.86
2022-08-03T04:31:08.322Z,76.83
2022-08-03T04:33:39.707Z,76.64
2022-08-03T04:36:10.382Z,76.44
2022-08-03T04:38:45.463Z,76.00
2022-08-03T04:41:15.154Z,76.16
2022-08-03T04:43:43.318Z,76.30
2022-08-03T04:46:12.257Z,76.92
2022-08-03T04:48:44.448Z,76.36
2022-08-03T04:51:13.375Z,77.52
2022-08-03T04:53:44.175Z,76.24
2022-08-03T04:56:12.285Z,76.00
2022-08-03T04:58:40.377Z,76.21
2022-08-03T05:01:08.668Z,75.62
2022-08-03T05:03:36.946Z,75.02
2022-08-03T05:06:10.995Z,74.91
2022-08-03T05:08:45.919Z,74.91
2022-08-03T05:11:16.260Z,74.85
2022-08-03T05:13:44.694Z,74.61
2022-08-03T05:16:13.844Z,74.35
2022-08-03T05:18:42.522Z,74.13
2022-08-03T05:21:10.682Z,74.01
2022-08-03T05:23:38.690Z,74.03
2022-08-03T05:26:06.787Z,73.89
2022-08-03T05:28:36.165Z,73.48
2022-08-03T05:31:04.206Z,73.70
2022-08-03T05:33:32.513Z,73.31
2022-08-03T05:36:04.322Z,72.85
2022-08-03T05:38:34.521Z,72.84
2022-08-03T05:41:23.351Z,72.39
2022-08-03T05:43:55.457Z,72.71
2022-08-03T05:46:23.834Z,72.32
2022-08-03T05:48:52.357Z,72.43
2022-08-03T05:51:20.763Z,73.08
2022-08-03T05:53:48.822Z,72.77
2022-08-03T05:56:17.203Z,72.75
2022-08-03T05:58:47.509Z,73.37
2022-08-03T06:01:17.945Z,72.39
2022-08-03T06:03:46.156Z,72.55
2022-08-03T06:06:14.501Z,73.84
2022-08-03T06:08:43.673Z,72.38
2022-08-03T06:11:11.762Z,72.26
2022-08-03T06:13:41.451Z,72.40
2022-08-03T06:16:09.724Z,72.71
2022-08-03T06:18:40.490Z,72.50
2022-08-03T06:21:14.608Z,72.72
2022-08-03T06:23:52.758Z,73.47
2022-08-03T06:26:22.153Z,72.61
2022-08-03T06:28:52.715Z,72.35
2022-08-03T06:31:24.193Z,72.54
2022-08-03T06:34:34.095Z,72.22
2022-08-03T06:36:41.825Z,72.24
2022-08-03T06:39:13.316Z,72.47
2022-08-03T06:41:44.774Z,72.09
2022-08-03T06:44:13.567Z,71.92
2022-08-03T06:46:42.370Z,71.98
2022-08-03T06:49:11.934Z,71.60
2022-08-03T06:52:03.249Z,71.87
2022-08-03T06:54:28.252Z,71.63
2022-08-03T06:56:56.244Z,71.68
2022-08-03T07:00:09.904Z,71.55
2022-08-03T07:02:19.019Z,71.45
2022-08-03T07:04:51.122Z,72.81
2022-08-03T07:07:20.704Z,72.32
2022-08-03T07:09:56.793Z,70.98
2022-08-03T07:12:27.681Z,71.22
2022-08-03T07:15:00.316Z,72.71
2022-08-03T07:17:29.987Z,71.11
2022-08-03T07:19:59.922Z,70.91
2022-08-03T07:22:28.557Z,71.38
2022-08-03T07:24:56.795Z,71.17
2022-08-03T07:27:27.030Z,70.83
2022-08-03T07:29:55.457Z,71.62
2022-08-03T07:32:23.545Z,69.13
2022-08-03T07:34:51.767Z,69.22
2022-08-03T07:37:21.245Z,68.61
2022-08-03T07:39:49.292Z,68.44
2022-08-03T07:42:17.737Z,69.42
2022-08-03T07:44:46.025Z,69.26
2022-08-03T07:47:22.227Z,69.31
2022-08-03T07:49:51.018Z,70.12
2022-08-03T07:52:36.876Z,69.99
2022-08-03T07:55:07.562Z,69.61
2022-08-03T07:57:36.467Z,69.25
2022-08-03T08:00:10.165Z,69.19
2022-08-03T08:02:41.078Z,68.37
2022-08-03T08:05:10.928Z,69.00
2022-08-03T08:07:39.609Z,69.02
2022-08-03T08:10:11.078Z,68.16
2022-08-03T08:12:39.269Z,68.36
2022-08-03T08:15:09.519Z,67.10
2022-08-03T08:17:43.503Z,67.23
2022-08-03T08:20:12.899Z,67.54
2022-08-03T08:22:40.983Z,67.87
2022-08-03T08:25:11.030Z,68.20
2022-08-03T08:28:29.371Z,66.22
2022-08-03T08:30:33.111Z,66.22
2022-08-03T08:33:01.418Z,66.72
2022-08-03T08:35:29.566Z,65.93
2022-08-03T08:37:57.635Z,65.85
2022-08-03T08:40:29.240Z,65.17
2022-08-03T08:42:58.726Z,66.71
2022-08-03T08:45:27.899Z,65.53
2022-08-03T08:48:02.538Z,65.03
2022-08-03T08:50:31.508Z,66.19
2022-08-03T08:53:03.212Z,66.84
2022-08-03T08:55:58.460Z,65.16
2022-08-03T08:58:23.774Z,65.18
2022-08-03T09:00:52.339Z,63.91
2022-08-03T09:03:26.155Z,64.34
2022-08-03T09:06:00.661Z,63.89
2022-08-03T09:08:30.254Z,64.19
2022-08-03T09:10:59.765Z,65.59
2022-08-03T09:13:29.119Z,65.64
2022-08-03T09:16:16.956Z,64.40
2022-08-03T09:18:46.389Z,64.09
2022-08-03T09:21:30.593Z,63.77
2022-08-03T09:24:03.700Z,62.77
2022-08-03T09:26:35.632Z,62.65
2022-08-03T09:29:12.869Z,62.31
2022-08-03T09:31:44.936Z,62.91
2022-08-03T09:34:15.422Z,63.95
2022-08-03T09:36:44.711Z,63.54
2022-08-03T09:39:14.209Z,63.35
2022-08-03T09:41:45.876Z,62.72
2022-08-03T09:44:24.158Z,62.04
2022-08-03T09:46:56.703Z,64.58
2022-08-03T09:49:25.927Z,63.20
2022-08-03T09:52:33.116Z,62.59
2022-08-03T09:54:43.889Z,62.32
2022-08-03T09:57:23.509Z,62.49
2022-08-03T09:59:58.775Z,61.81
2022-08-03T10:02:41.060Z,61.85
2022-08-03T10:05:10.751Z,61.18
2022-08-03T10:07:48.850Z,60.98
2022-08-03T10:10:30.065Z,62.29
2022-08-03T10:13:01.401Z,62.59
2022-08-03T10:16:22.769Z,61.41
2022-08-03T10:18:18.113Z,60.29
2022-08-03T10:20:50.371Z,60.81
2022-08-03T10:23:19.655Z,59.73
2022-08-03T10:25:50.708Z,60.67
2022-08-03T10:28:22.370Z,58.04
2022-08-03T10:30:53.494Z,58.60
2022-08-03T10:33:50.232Z,57.57
2022-08-03T10:36:16.432Z,57.95
2022-08-03T10:38:47.424Z,58.98
2022-08-03T10:41:19.176Z,60.99
2022-08-03T10:43:51.494Z,57.86
2022-08-03T10:46:20.797Z,58.67
2022-08-03T10:48:50.789Z,57.62
2022-08-03T10:51:20.958Z,59.13
2022-08-03T10:53:54.502Z,57.40
2022-08-03T10:57:03.380Z,57.10
2022-08-03T11:00:00.538Z,57.57
2022-08-03T11:03:11.704Z,56.12
2022-08-03T11:05:43.577Z,56.64
2022-08-03T11:08:35.961Z,55.74
2022-08-03T11:11:25.630Z,56.83
2022-08-03T11:14:03.287Z,57.09
2022-08-03T11:16:35.843Z,56.44
2022-08-03T11:19:06.429Z,56.33
2022-08-03T11:22:01.809Z,56.24
2022-08-03T11:24:58.213Z,55.90
2022-08-03T11:27:27.871Z,56.10
2022-08-03T11:29:57.539Z,58.48
2022-08-03T11:32:56.292Z,56.66
2022-08-03T11:35:26.169Z,56.30
2022-08-03T11:38:19.235Z,55.32
2022-08-03T11:40:48.922Z,56.26
2022-08-03T11:43:45.463Z,56.41
2022-08-03T11:46:29.506Z,54.40
2022-08-03T11:49:09.932Z,55.83
2022-08-03T11:51:40.216Z,54.71
2022-08-03T11:54:08.111Z,55.10
2022-08-03T11:56:45.631Z,54.77
2022-08-03T11:59:20.293Z,53.95
2022-08-03T12:01:49.975Z,54.52
2022-08-03T12:04:19.635Z,54.29
2022-08-03T12:07:00.448Z,55.72
2022-08-03T12:09:28.700Z,55.72
2022-08-03T12:12:00.137Z,56.42
2022-08-03T12:14:49.372Z,56.80
2022-08-03T12:17:18.881Z,57.71
2022-08-03T12:19:48.770Z,53.67
2022-08-03T12:22:17.319Z,53.83
2022-08-03T12:24:47.163Z,52.62
2022-08-03T12:27:25.095Z,54.68
2022-08-03T12:29:58.686Z,54.35
2022-08-03T12:32:28.286Z,54.01
2022-08-03T12:35:00.874Z,52.49
2022-08-03T12:37:30.350Z,49.64
2022-08-03T12:40:05.244Z,47.36
2022-08-03T12:42:38.791Z,49.50
2022-08-03T12:45:23.715Z,46.83
2022-08-03T12:47:56.654Z,45.26
2022-08-03T12:50:27.804Z,44.29
2022-08-03T12:52:56.493Z,44.39
2022-08-03T12:55:25.365Z,43.16
2022-08-03T12:57:53.215Z,43.97
2022-08-03T13:00:29.448Z,43.29
2022-08-03T13:03:38.567Z,43.00
2022-08-03T13:05:53.256Z,42.54
2022-08-03T13:08:22.261Z,41.68
2022-08-03T13:10:50.669Z,40.29
2022-08-03T13:13:20.807Z,42.30
2022-08-03T13:15:48.975Z,41.86
2022-08-03T13:18:17.314Z,41.84
2022-08-03T13:20:45.724Z,42.03
2022-08-03T13:23:22.097Z,41.76
2022-08-03T13:25:55.297Z,39.25
2022-08-03T13:28:24.428Z,44.54
2022-08-03T13:30:54.217Z,44.59
2022-08-03T13:33:22.213Z,40.42
2022-08-03T13:35:50.188Z,38.59
2022-08-03T13:38:19.592Z,40.58
2022-08-03T13:40:49.801Z,40.84
2022-08-03T13:43:18.165Z,38.34
2022-08-03T13:45:51.233Z,38.92
2022-08-03T13:48:36.856Z,38.65
2022-08-03T13:51:11.841Z,40.65
2022-08-03T13:53:52.751Z,37.92
2022-08-03T13:56:20.974Z,37.17
2022-08-03T13:58:49.096Z,36.82
2022-08-03T14:01:18.576Z,37.76
2022-08-03T14:03:54.121Z,38.42
2022-08-03T14:06:22.563Z,35.53
2022-08-03T14:08:52.246Z,35.69
2022-08-03T14:11:20.425Z,34.99
2022-08-03T14:13:48.534Z,36.11
2022-08-03T14:16:16.992Z,36.59
2022-08-03T14:18:45.893Z,38.33
2022-08-03T14:21:14.482Z,39.86
2022-08-03T14:23:42.520Z,40.36
2022-08-03T14:26:14.579Z,38.81
2022-08-03T14:28:42.625Z,36.08
2022-08-03T14:32:09.188Z,35.46
2022-08-03T14:33:58.621Z,35.37
2022-08-03T14:36:26.693Z,37.57
2022-08-03T14:38:58.184Z,36.84
2022-08-03T14:41:30.418Z,36.17
2022-08-03T14:44:00.449Z,36.94
2022-08-03T14:46:30.102Z,36.85
2022-08-03T14:50:29.393Z,36.12
2022-08-03T14:51:53.257Z,37.75
2022-08-03T14:54:22.734Z,36.88
2022-08-03T14:56:52.148Z,38.04
2022-08-03T14:59:20.215Z,36.53
2022-08-03T15:02:02.721Z,35.73
2022-08-03T15:04:34.743Z,37.00
2022-08-03T15:07:02.750Z,35.73
2022-08-03T15:09:30.714Z,36.20
2022-08-03T15:12:00.232Z,36.53
2022-08-03T15:14:28.408Z,38.22
2022-08-03T15:17:01.404Z,39.63
2022-08-03T15:20:01.594Z,41.09
2022-08-03T15:22:20.809Z,41.89
2022-08-03T15:24:53.838Z,41.51
2022-08-03T15:27:23.337Z,42.18
2022-08-03T15:30:05.334Z,42.00
2022-08-03T15:32:37.732Z,37.59
2022-08-03T15:35:06.615Z,38.33
2022-08-03T15:37:34.683Z,39.72
2022-08-03T15:40:02.802Z,43.34
2022-08-03T15:42:34.560Z,44.14
2022-08-03T15:45:02.913Z,43.06
2022-08-03T15:47:30.955Z,40.57
2022-08-03T15:49:59.041Z,39.86
2022-08-03T15:52:27.790Z,37.84
2022-08-03T15:54:55.861Z,38.29
2022-08-03T15:57:24.071Z,34.86
2022-08-03T15:59:53.581Z,38.95
2022-08-03T16:02:21.710Z,35.18
2022-08-03T16:04:49.701Z,35.23
2022-08-03T16:07:37.706Z,34.58
2022-08-03T16:10:06.282Z,37.40
2022-08-03T16:12:34.276Z,37.95
2022-08-03T16:15:04.061Z,41.67
2022-08-03T16:17:32.158Z,42.40
2022-08-03T16:20:00.277Z,42.84
2022-08-03T16:22:28.294Z,43.34
2022-08-03T16:24:57.282Z,43.76
2022-08-03T16:27:56.804Z,44.54
2022-08-03T16:30:17.018Z,44.08
2022-08-03T16:32:45.983Z,44.58
2022-08-03T16:35:19.747Z,43.45
2022-08-03T16:37:51.781Z,44.68
2022-08-03T16:40:26.013Z,45.08
2022-08-03T16:42:54.296Z,46.64
2022-08-03T16:45:23.869Z,45.20
2022-08-03T16:48:05.211Z,45.15
2022-08-03T16:50:35.194Z,40.86
2022-08-03T16:53:09.054Z,39.11
2022-08-03T16:55:52.010Z,39.19
2022-08-03T16:58:34.481Z,39.19
2022-08-03T17:01:22.299Z,38.78
2022-08-03T17:04:02.341Z,38.15
2022-08-03T17:06:34.218Z,39.34
2022-08-03T17:09:09.482Z,40.46
2022-08-03T17:11:44.302Z,43.78
2022-08-03T17:14:16.812Z,44.93
2022-08-03T17:16:52.713Z,46.80
2022-08-03T17:19:23.999Z,46.40
2022-08-03T17:22:00.745Z,47.14
2022-08-03T17:24:32.938Z,45.98
2022-08-03T17:27:08.595Z,49.27
2022-08-03T17:29:45.244Z,47.47
2022-08-03T17:32:18.391Z,50.50
2022-08-03T17:34:50.003Z,48.39
2022-08-03T17:37:49.925Z,48.57
2022-08-03T17:40:12.116Z,48.62
2022-08-03T17:42:46.310Z,48.51
2022-08-03T17:45:19.253Z,49.34
2022-08-03T17:47:57.427Z,49.48
2022-08-03T17:50:35.676Z,49.91
2022-08-03T17:53:07.455Z,50.14
2022-08-03T17:55:55.385Z,49.82
2022-08-03T17:58:41.436Z,49.15
2022-08-03T18:02:02.719Z,50.37
2022-08-03T18:04:30.028Z,50.13
2022-08-03T18:07:11.142Z,50.47
2022-08-03T18:10:10.756Z,50.54
2022-08-03T18:12:47.727Z,51.27
2022-08-03T18:15:26.280Z,51.80
2022-08-03T18:18:01.950Z,54.71
2022-08-03T18:20:41.101Z,52.86
2022-08-03T18:23:20.426Z,53.76
2022-08-03T18:26:00.717Z,56.63
2022-08-03T18:28:30.223Z,56.77
2022-08-03T18:30:58.905Z,58.70
2022-08-03T18:34:18.615Z,60.44
2022-08-03T18:36:29.672Z,62.20
2022-08-03T18:39:01.626Z,64.02
2022-08-03T18:41:48.037Z,65.67
2022-08-03T18:47:28.282Z,68.57
2022-08-03T18:50:25.798Z,69.30
2022-08-03T18:53:03.764Z,69.71
2022-08-03T18:56:01.300Z,70.31
2022-08-03T18:58:38.674Z,71.14
2022-08-03T19:04:10.919Z,72.53
2022-08-03T19:06:44.793Z,72.86
2022-08-03T19:09:24.020Z,72.66
2022-08-03T19:12:13.983Z,72.50
2022-08-03T19:14:51.932Z,73.45
2022-08-03T19:17:23.475Z,73.77
2022-08-03T19:19:59.117Z,74.02
2022-08-03T19:22:30.132Z,75.00
2022-08-03T19:25:02.030Z,74.25
2022-08-03T19:27:31.396Z,75.17
2022-08-03T19:30:04.075Z,75.27
2022-08-03T19:32:35.432Z,75.01
2022-08-03T19:35:13.443Z,75.11
2022-08-03T19:37:47.684Z,74.72
2022-08-03T19:40:19.864Z,75.88
2022-08-03T19:42:51.431Z,75.67
2022-08-03T19:46:05.305Z,75.06
2022-08-03T19:48:18.789Z,74.90
2022-08-03T19:50:54.547Z,75.21
2022-08-03T19:53:24.930Z,75.17
2022-08-03T19:56:07.732Z,75.10
2022-08-03T19:58:37.287Z,75.88
2022-08-03T20:03:54.338Z,76.20
2022-08-03T20:06:24.123Z,75.86
2022-08-03T20:08:55.183Z,76.25
2022-08-03T20:11:28.698Z,76.91
2022-08-03T20:13:59.383Z,76.71
2022-08-03T20:16:27.555Z,77.62
2022-08-03T20:18:55.969Z,77.50
2022-08-03T20:21:25.580Z,77.11
2022-08-03T20:24:02.757Z,76.69
2022-08-03T20:26:49.684Z,77.42
2022-08-03T20:29:42.664Z,77.48
2022-08-03T20:32:17.972Z,77.65
2022-08-03T20:34:46.095Z,77.86
2022-08-03T20:37:18.349Z,78.46
2022-08-03T20:42:36.092Z,78.81
2022-08-03T20:45:15.120Z,78.99
2022-08-03T20:47:54.382Z,78.15
2022-08-03T20:50:22.988Z,78.40
2022-08-03T20:52:51.047Z,78.14
2022-08-03T20:55:39.111Z,78.99
2022-08-03T20:58:10.570Z,77.72
2022-08-03T21:00:38.614Z,77.74
2022-08-03T21:03:06.844Z,77.45
2022-08-03T21:05:51.897Z,77.50
2022-08-03T21:08:25.331Z,78.55
2022-08-03T21:10:54.902Z,78.81
2022-08-03T21:12:59.141Z,67.05
2022-08-03T21:13:07.251Z,78.85
2022-08-03T21:13:09.878Z,71.61
2022-08-03T21:13:10.025Z,75.93
2022-08-03T21:13:31.107Z,78.68
2022-08-03T21:16:13.758Z,78.49
2022-08-03T21:18:46.093Z,79.28
2022-08-03T21:21:16.800Z,79.31
2022-08-03T21:23:48.640Z,80.52
2022-08-03T21:26:18.843Z,80.40
2022-08-03T21:28:48.944Z,79.75
2022-08-03T21:31:24.543Z,80.59
2022-08-03T21:33:56.458Z,80.79
2022-08-03T21:36:25.582Z,80.35
2022-08-03T21:38:56.100Z,80.02
2022-08-03T21:41:25.217Z,80.89
2022-08-03T21:43:54.875Z,81.32
2022-08-03T21:46:23.113Z,81.94
2022-08-03T21:48:55.644Z,81.45
2022-08-03T21:51:26.981Z,81.95
2022-08-03T21:54:02.578Z,81.43
2022-08-03T21:56:35.992Z,81.85
2022-08-03T21:59:08.195Z,81.80
2022-08-03T22:01:40.662Z,81.91
2022-08-03T22:04:11.951Z,81.83
2022-08-03T22:06:59.205Z,80.74
2022-08-03T22:09:27.539Z,81.66
2022-08-03T22:11:56.168Z,81.47
2022-08-03T22:14:25.727Z,81.49
2022-08-03T22:16:53.777Z,82.02
2022-08-03T22:19:21.827Z,81.06
2022-08-03T22:21:50.397Z,81.78
2022-08-03T22:24:23.947Z,81.75
2022-08-03T22:27:09.868Z,81.37
2022-08-03T22:29:41.016Z,82.23
2022-08-03T22:32:09.669Z,81.69
2022-08-03T22:34:38.207Z,81.76
2022-08-03T22:37:07.528Z,81.88
2022-08-03T22:39:39.313Z,81.51
2022-08-03T22:42:07.415Z,81.83
2022-08-03T22:44:36.485Z,81.70
2022-08-03T22:47:06.586Z,81.99
2022-08-03T22:49:36.615Z,80.78
2022-08-03T22:52:04.867Z,81.54
2022-08-03T22:54:33.535Z,81.02
2022-08-03T22:57:02.251Z,80.95
2022-08-03T22:59:39.240Z,80.90
2022-08-03T23:02:20.169Z,81.48
2022-08-03T23:04:52.175Z,82.09
2022-08-03T23:07:31.048Z,81.92
2022-08-03T23:09:59.231Z,82.24
2022-08-03T23:12:29.544Z,82.26
2022-08-03T23:15:01.443Z,82.87
2022-08-03T23:17:32.312Z,82.70
2022-08-03T23:20:06.331Z,82.72
2022-08-03T23:22:34.843Z,83.01
2022-08-03T23:25:03.901Z,83.52
2022-08-03T23:27:33.207Z,83.27
2022-08-03T23:30:03.131Z,83.16
2022-08-03T23:32:32.696Z,83.48
2022-08-03T23:35:20.555Z,83.54
2022-08-03T23:38:04.312Z,84.27
2022-08-03T23:40:38.084Z,84.86
2022-08-03T23:43:06.675Z,84.41
2022-08-03T23:45:36.608Z,84.89
2022-08-03T23:48:06.775Z,85.11
2022-08-03T23:50:44.216Z,85.21
2022-08-03T23:53:19.311Z,85.40
2022-08-03T23:55:57.037Z,86.16
2022-08-03T23:58:38.535Z,85.82
